SWA1647 KPHX-KORD
Flight info
| Callsign | SWA1647 |
|---|---|
| Flight time | N/A |
| Altitude | 37000 |
| Route | FORPE1 ABQ FTI J18 SLN J96 IRK BENKY6 |
| Aircraft | B38M/M-SDE1FGHILORVWXY/HB1 |
Departure
| Time | 2026-05-04 02:01 |
|---|---|
| Airport | Phoenix Sky Harbor International Airport (KPHX) |
Arrival
| Time | N/A |
|---|---|
| Airport | Chicago O'Hare International Airport (KORD) |
| Time | Latitude | Longitude | Altitude | Speed | Heading |
|---|---|---|---|---|---|
| 2026-05-04 01:36 | 33.43370 | -111.99623 | 1126 ft | 0 kts | 319° |
| 2026-05-04 01:52 | 33.43359 | -111.99612 | 1118 ft | 2 kts | 319° |
| 2026-05-04 01:52 | 33.43345 | -111.99592 | 1123 ft | 4 kts | 281° |
| 2026-05-04 01:53 | 33.43349 | -111.99575 | 1115 ft | 4 kts | 192° |
| 2026-05-04 01:53 | 33.43374 | -111.99574 | 1117 ft | 2 kts | 180° |
| 2026-05-04 01:53 | 33.43376 | -111.99574 | 1118 ft | 0 kts | 180° |
| 2026-05-04 01:57 | 33.43374 | -111.99574 | 1117 ft | 1 kts | 180° |
| 2026-05-04 01:57 | 33.43342 | -111.99574 | 1122 ft | 8 kts | 180° |
| 2026-05-04 01:58 | 33.43287 | -111.99544 | 1126 ft | 10 kts | 116° |
| 2026-05-04 01:58 | 33.43283 | -111.99456 | 1124 ft | 11 kts | 90° |
| 2026-05-04 01:58 | 33.43283 | -111.99355 | 1123 ft | 11 kts | 90° |
| 2026-05-04 01:58 | 33.43282 | -111.99282 | 1121 ft | 8 kts | 90° |
| 2026-05-04 01:59 | 33.43246 | -111.99245 | 1121 ft | 8 kts | 174° |
| 2026-05-04 01:59 | 33.43207 | -111.99263 | 1122 ft | 2 kts | 221° |
| 2026-05-04 01:59 | 33.43204 | -111.99266 | 1123 ft | 0 kts | 224° |
| 2026-05-04 02:00 | 33.43202 | -111.99268 | 1121 ft | 1 kts | 224° |
| 2026-05-04 02:00 | 33.43183 | -111.99290 | 1123 ft | 8 kts | 224° |
| 2026-05-04 02:00 | 33.43128 | -111.99346 | 1121 ft | 11 kts | 212° |
| 2026-05-04 02:00 | 33.43104 | -111.99447 | 1126 ft | 19 kts | 270° |
| 2026-05-04 02:01 | 33.43104 | -111.99916 | 1126 ft | 94 kts | 270° |
| 2026-05-04 02:01 | 33.43105 | -112.00969 | 1138 ft | 155 kts | 270° |
| 2026-05-04 02:01 | 33.43126 | -112.02351 | 1665 ft | 170 kts | 270° |
| 2026-05-04 02:01 | 33.43155 | -112.03754 | 2507 ft | 174 kts | 265° |
| 2026-05-04 02:02 | 33.43185 | -112.05315 | 2997 ft | 200 kts | 266° |
| 2026-05-04 02:02 | 33.43226 | -112.07018 | 3792 ft | 209 kts | 266° |
| 2026-05-04 02:02 | 33.43254 | -112.08775 | 4742 ft | 213 kts | 267° |
| 2026-05-04 02:02 | 33.43292 | -112.10600 | 5538 ft | 227 kts | 267° |
| 2026-05-04 02:03 | 33.43339 | -112.12553 | 6284 ft | 241 kts | 268° |
| 2026-05-04 02:03 | 33.43394 | -112.14588 | 7153 ft | 247 kts | 267° |
| 2026-05-04 02:03 | 33.43610 | -112.16665 | 7981 ft | 261 kts | 285° |
| 2026-05-04 02:03 | 33.44622 | -112.18513 | 8835 ft | 275 kts | 315° |
| 2026-05-04 02:04 | 33.46339 | -112.19629 | 9639 ft | 289 kts | 346° |
| 2026-05-04 02:04 | 33.48349 | -112.19716 | 10467 ft | 293 kts | 3° |
| 2026-05-04 02:04 | 33.50412 | -112.19638 | 11228 ft | 299 kts | 359° |
| 2026-05-04 02:04 | 33.52495 | -112.19602 | 12082 ft | 302 kts | 0° |
| 2026-05-04 02:05 | 33.54628 | -112.19183 | 12555 ft | 322 kts | 13° |
| 2026-05-04 02:05 | 33.56879 | -112.18488 | 12942 ft | 342 kts | 12° |
| 2026-05-04 02:05 | 33.59255 | -112.17775 | 13297 ft | 362 kts | 12° |
| 2026-05-04 02:05 | 33.61622 | -112.16582 | 13795 ft | 377 kts | 33° |
| 2026-05-04 02:06 | 33.63593 | -112.14469 | 14356 ft | 385 kts | 47° |
| 2026-05-04 02:06 | 33.65449 | -112.12121 | 15016 ft | 390 kts | 46° |
| 2026-05-04 02:06 | 33.67326 | -112.09747 | 15673 ft | 395 kts | 46° |
| 2026-05-04 02:06 | 33.69225 | -112.07335 | 16302 ft | 400 kts | 46° |
| 2026-05-04 02:07 | 33.71147 | -112.04889 | 16939 ft | 405 kts | 46° |
| 2026-05-04 02:07 | 33.72946 | -112.02269 | 17533 ft | 410 kts | 59° |
| 2026-05-04 02:07 | 33.74085 | -111.99126 | 18129 ft | 413 kts | 77° |
| 2026-05-04 02:07 | 33.74422 | -111.95706 | 18594 ft | 414 kts | 95° |
| 2026-05-04 02:08 | 33.74224 | -111.92240 | 19116 ft | 418 kts | 97° |
| 2026-05-04 02:08 | 33.73984 | -111.88781 | 19595 ft | 423 kts | 98° |
| 2026-05-04 02:08 | 33.73715 | -111.85242 | 20129 ft | 428 kts | 98° |
| 2026-05-04 02:08 | 33.73427 | -111.81660 | 20574 ft | 433 kts | 98° |
| 2026-05-04 02:09 | 33.73129 | -111.78044 | 21077 ft | 437 kts | 98° |
| 2026-05-04 02:09 | 33.72822 | -111.74389 | 21552 ft | 442 kts | 98° |
| 2026-05-04 02:09 | 33.72512 | -111.70702 | 22003 ft | 447 kts | 98° |
| 2026-05-04 02:09 | 33.72197 | -111.66975 | 22485 ft | 451 kts | 98° |
| 2026-05-04 02:10 | 33.71877 | -111.63212 | 22936 ft | 455 kts | 98° |
| 2026-05-04 02:10 | 33.71553 | -111.59409 | 23382 ft | 460 kts | 98° |
| 2026-05-04 02:10 | 33.71225 | -111.55571 | 23774 ft | 464 kts | 98° |
| 2026-05-04 02:10 | 33.70892 | -111.51697 | 24150 ft | 468 kts | 98° |
| 2026-05-04 02:11 | 33.70556 | -111.47792 | 24563 ft | 472 kts | 97° |
| 2026-05-04 02:11 | 33.70216 | -111.43862 | 24947 ft | 475 kts | 97° |
| 2026-05-04 02:11 | 33.69872 | -111.39902 | 25360 ft | 479 kts | 97° |
| 2026-05-04 02:11 | 33.69525 | -111.35913 | 25777 ft | 483 kts | 97° |
| 2026-05-04 02:12 | 33.69174 | -111.31879 | 26105 ft | 488 kts | 97° |
| 2026-05-04 02:12 | 33.69141 | -111.27793 | 26332 ft | 493 kts | 81° |
| 2026-05-04 02:12 | 33.69981 | -111.23829 | 26815 ft | 489 kts | 66° |
| 2026-05-04 02:12 | 33.71252 | -111.20025 | 27081 ft | 494 kts | 65° |
| 2026-05-04 02:13 | 33.72571 | -111.16199 | 27435 ft | 496 kts | 64° |
| 2026-05-04 02:13 | 33.73913 | -111.12373 | 27816 ft | 499 kts | 64° |
| 2026-05-04 02:13 | 33.75276 | -111.08532 | 28152 ft | 502 kts | 63° |
| 2026-05-04 02:13 | 33.76654 | -111.04658 | 28495 ft | 505 kts | 63° |
| 2026-05-04 02:14 | 33.78039 | -111.00763 | 28851 ft | 508 kts | 63° |
| 2026-05-04 02:14 | 33.79432 | -110.96842 | 29228 ft | 511 kts | 63° |
| 2026-05-04 02:14 | 33.80832 | -110.92900 | 29560 ft | 514 kts | 63° |
| 2026-05-04 02:14 | 33.81762 | -110.90277 | 29815 ft | 515 kts | 63° |
| 2026-05-04 02:15 | 33.83168 | -110.86307 | 30058 ft | 518 kts | 63° |
| 2026-05-04 02:15 | 33.84584 | -110.82301 | 30336 ft | 521 kts | 63° |
| 2026-05-04 02:15 | 33.86007 | -110.78273 | 30561 ft | 525 kts | 63° |
| 2026-05-04 02:15 | 33.87439 | -110.74217 | 30833 ft | 528 kts | 62° |
| 2026-05-04 02:16 | 33.88877 | -110.70134 | 31059 ft | 531 kts | 62° |
| 2026-05-04 02:16 | 33.90320 | -110.66035 | 31387 ft | 533 kts | 62° |
| 2026-05-04 02:16 | 33.91769 | -110.61913 | 31641 ft | 537 kts | 62° |
| 2026-05-04 02:16 | 33.93228 | -110.57755 | 31812 ft | 541 kts | 62° |
| 2026-05-04 02:17 | 33.94694 | -110.53573 | 32132 ft | 543 kts | 62° |
| 2026-05-04 02:17 | 33.96166 | -110.49369 | 32327 ft | 546 kts | 62° |
| 2026-05-04 02:17 | 33.97644 | -110.45143 | 32595 ft | 549 kts | 62° |
| 2026-05-04 02:17 | 33.99128 | -110.40893 | 32820 ft | 552 kts | 61° |
| 2026-05-04 02:18 | 34.00617 | -110.36621 | 33091 ft | 554 kts | 61° |
| 2026-05-04 02:18 | 34.02111 | -110.32333 | 33399 ft | 555 kts | 61° |
| 2026-05-04 02:18 | 34.03604 | -110.28039 | 33744 ft | 556 kts | 61° |
| 2026-05-04 02:18 | 34.05096 | -110.23748 | 34093 ft | 556 kts | 61° |
| 2026-05-04 02:19 | 34.06587 | -110.19442 | 34417 ft | 555 kts | 61° |
| 2026-05-04 02:19 | 34.08073 | -110.15150 | 34760 ft | 555 kts | 61° |
| 2026-05-04 02:19 | 34.09560 | -110.10852 | 35071 ft | 555 kts | 61° |
| 2026-05-04 02:19 | 34.11043 | -110.06557 | 35369 ft | 555 kts | 61° |
| 2026-05-04 02:20 | 34.12524 | -110.02262 | 35647 ft | 555 kts | 61° |
| 2026-05-04 02:20 | 34.14006 | -109.97961 | 35923 ft | 555 kts | 61° |
| 2026-05-04 02:20 | 34.15483 | -109.93666 | 36191 ft | 554 kts | 61° |
| 2026-05-04 02:20 | 34.16962 | -109.89361 | 36441 ft | 554 kts | 61° |
| 2026-05-04 02:21 | 34.18435 | -109.85068 | 36677 ft | 554 kts | 61° |
| 2026-05-04 02:21 | 34.19910 | -109.80762 | 36901 ft | 554 kts | 61° |
| 2026-05-04 02:21 | 34.21382 | -109.76459 | 37028 ft | 555 kts | 61° |
| 2026-05-04 02:21 | 34.22855 | -109.72145 | 37003 ft | 555 kts | 62° |
| 2026-05-04 02:22 | 34.25782 | -109.63561 | 36967 ft | 552 kts | 62° |
| 2026-05-04 02:22 | 34.28704 | -109.54967 | 36993 ft | 552 kts | 62° |
| 2026-05-04 02:23 | 34.31820 | -109.46543 | 36944 ft | 539 kts | 49° |
| 2026-05-04 02:23 | 34.34120 | -109.43099 | 36985 ft | 516 kts | 32° |
| 2026-05-04 02:23 | 34.36917 | -109.40554 | 37004 ft | 491 kts | 16° |
| 2026-05-04 02:24 | 34.39981 | -109.39027 | 37025 ft | 464 kts | 1° |
| 2026-05-04 02:24 | 34.43100 | -109.38131 | 37028 ft | 461 kts | 359° |
| 2026-05-04 02:24 | 34.49370 | -109.36508 | 37038 ft | 461 kts | 359° |
| 2026-05-04 02:25 | 34.55651 | -109.34915 | 37040 ft | 461 kts | 359° |
| 2026-05-04 02:25 | 34.61934 | -109.33345 | 37030 ft | 461 kts | 359° |
| 2026-05-04 02:26 | 34.68213 | -109.31800 | 36987 ft | 461 kts | 359° |
| 2026-05-04 02:26 | 34.74458 | -109.30284 | 36946 ft | 461 kts | 359° |
| 2026-05-04 02:27 | 34.80748 | -109.28785 | 36901 ft | 460 kts | 359° |
| 2026-05-04 02:27 | 34.87036 | -109.27311 | 36883 ft | 460 kts | 359° |
| 2026-05-04 02:28 | 34.90212 | -109.26354 | 36893 ft | 475 kts | 11° |
| 2026-05-04 02:28 | 34.93157 | -109.24336 | 36917 ft | 500 kts | 31° |
| 2026-05-04 02:28 | 34.95535 | -109.21202 | 36950 ft | 522 kts | 51° |
| 2026-05-04 02:28 | 34.97144 | -109.17172 | 36978 ft | 537 kts | 69° |
| 2026-05-04 02:29 | 34.97916 | -109.12691 | 37005 ft | 544 kts | 85° |
| 2026-05-04 02:29 | 34.97851 | -109.08084 | 37046 ft | 545 kts | 92° |
| 2026-05-04 02:29 | 34.98031 | -108.98836 | 37088 ft | 546 kts | 86° |
| 2026-05-04 02:30 | 34.98366 | -108.89587 | 37073 ft | 545 kts | 86° |
| 2026-05-04 02:30 | 34.98708 | -108.80356 | 37049 ft | 545 kts | 86° |
| 2026-05-04 02:31 | 34.99044 | -108.71128 | 37014 ft | 545 kts | 86° |
| 2026-05-04 02:31 | 34.99372 | -108.61899 | 36974 ft | 545 kts | 86° |
| 2026-05-04 02:32 | 34.99693 | -108.52671 | 36921 ft | 544 kts | 86° |
| 2026-05-04 02:32 | 35.00007 | -108.43452 | 36934 ft | 544 kts | 86° |
| 2026-05-04 02:33 | 35.00313 | -108.34234 | 36920 ft | 544 kts | 86° |
| 2026-05-04 02:33 | 35.00613 | -108.25016 | 36955 ft | 544 kts | 86° |
| 2026-05-04 02:34 | 35.00906 | -108.15802 | 36997 ft | 544 kts | 86° |
| 2026-05-04 02:34 | 35.01192 | -108.06578 | 37041 ft | 544 kts | 86° |
| 2026-05-04 02:35 | 35.01471 | -107.97357 | 37062 ft | 544 kts | 87° |
| 2026-05-04 02:35 | 35.01742 | -107.88195 | 37059 ft | 544 kts | 86° |
| 2026-05-04 02:36 | 35.02007 | -107.78965 | 37076 ft | 545 kts | 87° |
| 2026-05-04 02:36 | 35.02265 | -107.69720 | 37037 ft | 545 kts | 87° |
| 2026-05-04 02:37 | 35.02518 | -107.60466 | 36984 ft | 546 kts | 87° |
| 2026-05-04 02:37 | 35.02763 | -107.51209 | 36918 ft | 546 kts | 87° |
| 2026-05-04 02:38 | 35.03001 | -107.41954 | 36908 ft | 546 kts | 87° |
| 2026-05-04 02:38 | 35.03232 | -107.32685 | 36897 ft | 547 kts | 87° |
| 2026-05-04 02:39 | 35.03456 | -107.23410 | 36888 ft | 547 kts | 87° |
| 2026-05-04 02:39 | 35.03674 | -107.14142 | 36910 ft | 546 kts | 87° |
| 2026-05-04 02:40 | 35.03884 | -107.04872 | 36975 ft | 547 kts | 87° |
| 2026-05-04 02:40 | 35.04087 | -106.95614 | 37008 ft | 545 kts | 87° |
| 2026-05-04 02:41 | 35.04281 | -106.86422 | 37053 ft | 545 kts | 87° |
| 2026-05-04 02:41 | 35.04680 | -106.81852 | 37042 ft | 538 kts | 71° |
| 2026-05-04 02:41 | 35.05954 | -106.77568 | 37086 ft | 527 kts | 59° |
| 2026-05-04 02:42 | 35.08958 | -106.69425 | 37058 ft | 530 kts | 60° |
| 2026-05-04 02:42 | 35.12002 | -106.61235 | 37057 ft | 529 kts | 60° |
| 2026-05-04 02:43 | 35.15047 | -106.53050 | 37032 ft | 529 kts | 60° |
| 2026-05-04 02:43 | 35.18082 | -106.44873 | 37000 ft | 528 kts | 60° |
| 2026-05-04 02:44 | 35.21110 | -106.36699 | 36965 ft | 527 kts | 60° |
| 2026-05-04 02:44 | 35.24133 | -106.28502 | 36914 ft | 529 kts | 60° |
| 2026-05-04 02:45 | 35.27149 | -106.20315 | 36913 ft | 528 kts | 60° |
| 2026-05-04 02:45 | 35.30161 | -106.12114 | 36935 ft | 528 kts | 60° |
| 2026-05-04 02:46 | 35.33169 | -106.03904 | 36962 ft | 528 kts | 60° |
| 2026-05-04 02:46 | 35.36170 | -105.95692 | 36967 ft | 528 kts | 60° |
| 2026-05-04 02:47 | 35.39164 | -105.87475 | 36967 ft | 528 kts | 60° |
| 2026-05-04 02:47 | 35.42155 | -105.79250 | 36955 ft | 528 kts | 60° |
| 2026-05-04 02:48 | 35.45136 | -105.71025 | 36936 ft | 528 kts | 60° |
| 2026-05-04 02:48 | 35.48115 | -105.62787 | 36929 ft | 528 kts | 60° |
| 2026-05-04 02:49 | 35.51086 | -105.54553 | 36934 ft | 528 kts | 60° |
| 2026-05-04 02:49 | 35.54052 | -105.46306 | 36964 ft | 528 kts | 60° |
| 2026-05-04 02:50 | 35.57005 | -105.38076 | 37017 ft | 527 kts | 60° |
| 2026-05-04 02:50 | 35.59952 | -105.29841 | 37041 ft | 526 kts | 60° |
| 2026-05-04 02:51 | 35.62894 | -105.21605 | 37080 ft | 527 kts | 60° |
| 2026-05-04 02:51 | 35.65901 | -105.13397 | 37063 ft | 521 kts | 53° |
| 2026-05-04 02:52 | 35.69845 | -105.06098 | 37061 ft | 517 kts | 49° |
| 2026-05-04 02:52 | 35.73837 | -104.98748 | 37034 ft | 517 kts | 49° |
| 2026-05-04 02:53 | 35.77836 | -104.91394 | 36970 ft | 517 kts | 48° |
| 2026-05-04 02:53 | 35.81833 | -104.84028 | 36910 ft | 517 kts | 48° |
| 2026-05-04 02:54 | 35.85825 | -104.76657 | 36862 ft | 517 kts | 48° |
| 2026-05-04 02:54 | 35.89817 | -104.69270 | 36852 ft | 517 kts | 48° |
| 2026-05-04 02:55 | 35.95790 | -104.58187 | 36849 ft | 517 kts | 49° |
| 2026-05-04 02:56 | 35.99766 | -104.50791 | 36853 ft | 516 kts | 48° |
| 2026-05-04 02:56 | 36.03735 | -104.43390 | 36829 ft | 517 kts | 48° |
| 2026-05-04 02:57 | 36.07700 | -104.35983 | 36836 ft | 517 kts | 48° |
| 2026-05-04 02:57 | 36.11654 | -104.28578 | 36830 ft | 516 kts | 48° |
| 2026-05-04 02:58 | 36.15606 | -104.21161 | 36836 ft | 516 kts | 48° |
| 2026-05-04 02:58 | 36.19552 | -104.13741 | 36831 ft | 516 kts | 48° |
| 2026-05-04 02:59 | 36.23493 | -104.06313 | 36844 ft | 516 kts | 48° |
| 2026-05-04 02:59 | 36.27404 | -103.98924 | 36845 ft | 516 kts | 48° |
| 2026-05-04 03:00 | 36.31339 | -103.91477 | 36846 ft | 516 kts | 48° |
| 2026-05-04 03:00 | 36.35267 | -103.84025 | 36849 ft | 516 kts | 48° |
| 2026-05-04 03:01 | 36.39191 | -103.76565 | 36850 ft | 516 kts | 48° |
| 2026-05-04 03:01 | 36.43119 | -103.69079 | 36853 ft | 516 kts | 49° |
| 2026-05-04 03:02 | 36.46374 | -103.62866 | 36847 ft | 516 kts | 49° |
| 2026-05-04 03:02 | 36.50284 | -103.55385 | 36861 ft | 516 kts | 49° |
| 2026-05-04 03:03 | 36.54186 | -103.47903 | 36883 ft | 516 kts | 49° |
| 2026-05-04 03:03 | 36.58088 | -103.40405 | 36890 ft | 516 kts | 49° |
| 2026-05-04 03:04 | 36.61980 | -103.32910 | 36896 ft | 515 kts | 49° |
| 2026-05-04 03:04 | 36.65865 | -103.25415 | 36893 ft | 515 kts | 49° |
| 2026-05-04 03:05 | 36.69741 | -103.17920 | 36882 ft | 515 kts | 49° |
| 2026-05-04 03:05 | 36.73607 | -103.10427 | 36854 ft | 514 kts | 49° |
| 2026-05-04 03:06 | 36.77461 | -103.02931 | 36824 ft | 513 kts | 49° |
| 2026-05-04 03:06 | 36.81310 | -102.95436 | 36806 ft | 512 kts | 49° |
| 2026-05-04 03:07 | 36.85143 | -102.87954 | 36798 ft | 511 kts | 49° |
| 2026-05-04 03:07 | 36.88972 | -102.80464 | 36795 ft | 511 kts | 50° |
| 2026-05-04 03:08 | 36.92785 | -102.72989 | 36788 ft | 510 kts | 50° |
| 2026-05-04 03:08 | 36.96589 | -102.65514 | 36790 ft | 509 kts | 50° |
| 2026-05-04 03:09 | 37.00360 | -102.58090 | 36776 ft | 508 kts | 50° |
| 2026-05-04 03:09 | 37.04142 | -102.50625 | 36774 ft | 508 kts | 50° |
| 2026-05-04 03:10 | 37.07916 | -102.43160 | 36769 ft | 507 kts | 50° |
| 2026-05-04 03:10 | 37.11682 | -102.35693 | 36766 ft | 506 kts | 50° |
| 2026-05-04 03:11 | 37.15438 | -102.28230 | 36770 ft | 506 kts | 50° |
| 2026-05-04 03:11 | 37.19183 | -102.20773 | 36790 ft | 505 kts | 50° |
| 2026-05-04 03:12 | 37.22923 | -102.13308 | 36800 ft | 504 kts | 50° |
| 2026-05-04 03:12 | 37.26649 | -102.05855 | 36799 ft | 504 kts | 51° |
| 2026-05-04 03:13 | 37.30368 | -101.98400 | 36794 ft | 503 kts | 51° |
| 2026-05-04 03:13 | 37.34075 | -101.90953 | 36799 ft | 502 kts | 51° |
| 2026-05-04 03:14 | 37.37776 | -101.83499 | 36816 ft | 502 kts | 51° |
| 2026-05-04 03:14 | 37.41463 | -101.76058 | 36835 ft | 501 kts | 51° |
| 2026-05-04 03:15 | 37.45119 | -101.68666 | 36844 ft | 500 kts | 51° |
| 2026-05-04 03:15 | 37.48805 | -101.61191 | 36846 ft | 499 kts | 51° |
| 2026-05-04 03:16 | 37.52428 | -101.53824 | 36829 ft | 498 kts | 51° |
| 2026-05-04 03:16 | 37.56092 | -101.46359 | 36846 ft | 497 kts | 52° |
| 2026-05-04 03:17 | 37.59694 | -101.39005 | 36847 ft | 496 kts | 52° |
| 2026-05-04 03:17 | 37.63307 | -101.31610 | 36845 ft | 495 kts | 52° |
| 2026-05-04 03:18 | 37.66914 | -101.24213 | 36832 ft | 495 kts | 52° |
| 2026-05-04 03:18 | 37.70519 | -101.16801 | 36816 ft | 496 kts | 52° |
| 2026-05-04 03:19 | 37.74124 | -101.09374 | 36802 ft | 496 kts | 52° |
| 2026-05-04 03:19 | 37.77725 | -101.01940 | 36796 ft | 496 kts | 52° |
| 2026-05-04 03:20 | 37.81319 | -100.94500 | 36806 ft | 496 kts | 52° |
| 2026-05-04 03:20 | 37.84915 | -100.87041 | 36826 ft | 496 kts | 52° |
| 2026-05-04 03:21 | 37.88505 | -100.79576 | 36837 ft | 496 kts | 53° |
| 2026-05-04 03:21 | 37.92027 | -100.72060 | 36829 ft | 500 kts | 59° |
| 2026-05-04 03:22 | 37.94814 | -100.63960 | 36832 ft | 502 kts | 62° |
| 2026-05-04 03:22 | 37.97581 | -100.55845 | 36822 ft | 502 kts | 62° |
| 2026-05-04 03:23 | 38.00338 | -100.47726 | 36804 ft | 501 kts | 62° |
| 2026-05-04 03:23 | 38.03072 | -100.39652 | 36793 ft | 501 kts | 62° |
| 2026-05-04 03:24 | 38.05817 | -100.31525 | 36788 ft | 501 kts | 62° |
| 2026-05-04 03:24 | 38.08559 | -100.23383 | 36782 ft | 501 kts | 62° |
| 2026-05-04 03:25 | 38.11293 | -100.15240 | 36782 ft | 502 kts | 62° |
| 2026-05-04 03:25 | 38.14024 | -100.07085 | 36785 ft | 502 kts | 62° |
| 2026-05-04 03:26 | 38.16750 | -99.98923 | 36785 ft | 501 kts | 62° |
| 2026-05-04 03:26 | 38.19466 | -99.90765 | 36784 ft | 501 kts | 62° |
| 2026-05-04 03:27 | 38.22177 | -99.82603 | 36777 ft | 501 kts | 62° |
| 2026-05-04 03:27 | 38.24885 | -99.74424 | 36783 ft | 501 kts | 63° |
| 2026-05-04 03:28 | 38.27583 | -99.66255 | 36783 ft | 500 kts | 63° |
| 2026-05-04 03:28 | 38.30270 | -99.58091 | 36782 ft | 500 kts | 63° |
| 2026-05-04 03:29 | 38.32952 | -99.49924 | 36792 ft | 500 kts | 63° |
| 2026-05-04 03:29 | 38.35624 | -99.41762 | 36787 ft | 499 kts | 63° |
| 2026-05-04 03:30 | 38.38290 | -99.33596 | 36793 ft | 499 kts | 63° |
| 2026-05-04 03:30 | 38.40950 | -99.25424 | 36791 ft | 499 kts | 63° |
| 2026-05-04 03:31 | 38.43603 | -99.17250 | 36788 ft | 499 kts | 63° |
| 2026-05-04 03:31 | 38.46231 | -99.09127 | 36809 ft | 498 kts | 63° |
| 2026-05-04 03:32 | 38.48871 | -99.00950 | 36815 ft | 498 kts | 63° |
| 2026-05-04 03:32 | 38.51502 | -98.92771 | 36816 ft | 498 kts | 63° |
| 2026-05-04 03:33 | 38.54126 | -98.84595 | 36810 ft | 498 kts | 63° |
| 2026-05-04 03:33 | 38.56744 | -98.76410 | 36804 ft | 497 kts | 63° |
| 2026-05-04 03:34 | 38.59356 | -98.68224 | 36792 ft | 497 kts | 63° |
| 2026-05-04 03:34 | 38.61960 | -98.60036 | 36785 ft | 497 kts | 63° |
| 2026-05-04 03:35 | 38.64558 | -98.51843 | 36779 ft | 497 kts | 63° |
| 2026-05-04 03:35 | 38.67151 | -98.43644 | 36774 ft | 497 kts | 63° |
| 2026-05-04 03:36 | 38.69737 | -98.35442 | 36780 ft | 497 kts | 63° |
| 2026-05-04 03:36 | 38.72315 | -98.27240 | 36772 ft | 496 kts | 63° |
| 2026-05-04 03:37 | 38.74872 | -98.19083 | 36779 ft | 496 kts | 63° |
| 2026-05-04 03:37 | 38.77440 | -98.10867 | 36780 ft | 496 kts | 63° |
| 2026-05-04 03:38 | 38.80000 | -98.02652 | 36794 ft | 496 kts | 63° |
| 2026-05-04 03:38 | 38.82557 | -97.94420 | 36801 ft | 496 kts | 63° |
| 2026-05-04 03:39 | 38.85106 | -97.86197 | 36811 ft | 496 kts | 64° |
| 2026-05-04 03:39 | 38.87650 | -97.77966 | 36820 ft | 496 kts | 64° |
| 2026-05-04 03:40 | 38.90188 | -97.69732 | 36820 ft | 496 kts | 64° |
| 2026-05-04 03:40 | 38.92656 | -97.61454 | 36815 ft | 498 kts | 67° |
| 2026-05-04 03:41 | 38.94857 | -97.53014 | 36812 ft | 498 kts | 67° |
| 2026-05-04 03:41 | 38.97072 | -97.44657 | 36805 ft | 498 kts | 66° |
| 2026-05-04 03:42 | 38.99301 | -97.36235 | 36790 ft | 498 kts | 66° |
| 2026-05-04 03:42 | 39.01526 | -97.27801 | 36783 ft | 498 kts | 67° |
| 2026-05-04 03:43 | 39.03743 | -97.19369 | 36787 ft | 498 kts | 67° |
| 2026-05-04 03:43 | 39.05956 | -97.10924 | 36797 ft | 498 kts | 67° |
| 2026-05-04 03:44 | 39.08162 | -97.02477 | 36807 ft | 498 kts | 67° |
| 2026-05-04 03:44 | 39.10362 | -96.94029 | 36815 ft | 498 kts | 67° |
| 2026-05-04 03:45 | 39.12556 | -96.85569 | 36826 ft | 498 kts | 67° |
| 2026-05-04 03:45 | 39.14743 | -96.77109 | 36847 ft | 498 kts | 67° |
| 2026-05-04 03:46 | 39.16911 | -96.68696 | 36840 ft | 498 kts | 67° |
| 2026-05-04 03:46 | 39.19087 | -96.60220 | 36839 ft | 498 kts | 67° |
| 2026-05-04 03:47 | 39.21259 | -96.51731 | 36833 ft | 498 kts | 67° |
| 2026-05-04 03:47 | 39.23424 | -96.43239 | 36827 ft | 499 kts | 67° |
| 2026-05-04 03:48 | 39.25584 | -96.34742 | 36823 ft | 499 kts | 67° |
| 2026-05-04 03:48 | 39.27741 | -96.26221 | 36806 ft | 499 kts | 67° |
| 2026-05-04 03:49 | 39.29892 | -96.17698 | 36809 ft | 499 kts | 68° |
| 2026-05-04 03:49 | 39.32036 | -96.09170 | 36808 ft | 500 kts | 68° |
| 2026-05-04 03:50 | 39.33817 | -96.02065 | 36810 ft | 500 kts | 68° |
| 2026-05-04 03:50 | 39.35954 | -95.93512 | 36806 ft | 500 kts | 68° |
| 2026-05-04 03:51 | 39.38085 | -95.84953 | 36811 ft | 500 kts | 68° |
| 2026-05-04 03:51 | 39.40212 | -95.76379 | 36809 ft | 500 kts | 68° |
| 2026-05-04 03:52 | 39.42330 | -95.67808 | 36811 ft | 501 kts | 68° |
| 2026-05-04 03:52 | 39.44444 | -95.59226 | 36811 ft | 501 kts | 68° |
| 2026-05-04 03:53 | 39.46553 | -95.50631 | 36817 ft | 501 kts | 68° |
| 2026-05-04 03:53 | 39.48656 | -95.42031 | 36814 ft | 501 kts | 68° |
| 2026-05-04 03:54 | 39.50753 | -95.33425 | 36819 ft | 501 kts | 68° |
| 2026-05-04 03:54 | 39.52843 | -95.24815 | 36815 ft | 501 kts | 68° |
| 2026-05-04 03:55 | 39.54931 | -95.16184 | 36824 ft | 501 kts | 68° |
| 2026-05-04 03:55 | 39.57011 | -95.07564 | 36834 ft | 502 kts | 68° |
| 2026-05-04 03:56 | 39.59088 | -94.98926 | 36849 ft | 502 kts | 68° |
| 2026-05-04 03:56 | 39.61153 | -94.90287 | 36845 ft | 501 kts | 68° |
| 2026-05-04 03:57 | 39.63206 | -94.81647 | 36842 ft | 501 kts | 68° |
| 2026-05-04 03:57 | 39.65255 | -94.73007 | 36850 ft | 501 kts | 68° |
| 2026-05-04 03:58 | 39.68318 | -94.60037 | 36840 ft | 501 kts | 68° |
| 2026-05-04 03:58 | 39.70337 | -94.51446 | 36842 ft | 501 kts | 68° |
| 2026-05-04 03:59 | 39.72379 | -94.42725 | 36846 ft | 501 kts | 68° |
| 2026-05-04 03:59 | 39.74385 | -94.34126 | 36845 ft | 501 kts | 68° |
| 2026-05-04 04:00 | 39.76401 | -94.25452 | 36848 ft | 501 kts | 68° |
| 2026-05-04 04:00 | 39.78407 | -94.16783 | 36853 ft | 501 kts | 68° |
| 2026-05-04 04:01 | 39.80404 | -94.08104 | 36857 ft | 501 kts | 68° |
| 2026-05-04 04:01 | 39.82395 | -93.99421 | 36859 ft | 500 kts | 68° |
| 2026-05-04 04:02 | 39.84375 | -93.90750 | 36860 ft | 500 kts | 68° |
| 2026-05-04 04:02 | 39.86351 | -93.82070 | 36858 ft | 500 kts | 68° |
| 2026-05-04 04:03 | 39.88318 | -93.73389 | 36872 ft | 500 kts | 68° |
| 2026-05-04 04:03 | 39.90281 | -93.64697 | 36868 ft | 500 kts | 68° |
| 2026-05-04 04:04 | 39.92237 | -93.56000 | 36866 ft | 501 kts | 68° |
| 2026-05-04 04:04 | 39.94187 | -93.47295 | 36864 ft | 500 kts | 68° |
| 2026-05-04 04:05 | 39.96133 | -93.38578 | 36865 ft | 501 kts | 68° |
| 2026-05-04 04:05 | 39.98071 | -93.29855 | 36866 ft | 501 kts | 68° |
| 2026-05-04 04:06 | 40.00002 | -93.21132 | 36868 ft | 501 kts | 68° |
| 2026-05-04 04:06 | 40.01914 | -93.12463 | 36866 ft | 501 kts | 68° |
| 2026-05-04 04:07 | 40.03831 | -93.03735 | 36867 ft | 501 kts | 69° |
| 2026-05-04 04:07 | 40.05747 | -92.94982 | 36870 ft | 501 kts | 69° |
| 2026-05-04 04:08 | 40.07653 | -92.86236 | 36871 ft | 501 kts | 69° |
| 2026-05-04 04:08 | 40.09553 | -92.77479 | 36875 ft | 500 kts | 69° |
| 2026-05-04 04:09 | 40.11444 | -92.68738 | 36872 ft | 500 kts | 69° |
| 2026-05-04 04:09 | 40.13330 | -92.60047 | 36868 ft | 499 kts | 66° |
| 2026-05-04 04:10 | 40.16147 | -92.51916 | 36871 ft | 491 kts | 58° |
| 2026-05-04 04:10 | 40.19063 | -92.43839 | 36872 ft | 491 kts | 58° |
| 2026-05-04 04:11 | 40.21979 | -92.35766 | 36868 ft | 491 kts | 58° |
| 2026-05-04 04:11 | 40.24889 | -92.27687 | 36879 ft | 490 kts | 58° |
| 2026-05-04 04:12 | 40.27791 | -92.19608 | 36874 ft | 490 kts | 58° |
| 2026-05-04 04:12 | 40.30687 | -92.11523 | 36873 ft | 490 kts | 58° |
| 2026-05-04 04:13 | 40.33575 | -92.03438 | 36868 ft | 489 kts | 58° |
| 2026-05-04 04:13 | 40.36453 | -91.95359 | 36867 ft | 489 kts | 59° |
| 2026-05-04 04:14 | 40.39325 | -91.87273 | 36866 ft | 488 kts | 59° |
| 2026-05-04 04:14 | 40.42162 | -91.79250 | 36863 ft | 488 kts | 59° |
| 2026-05-04 04:15 | 40.44926 | -91.71113 | 36861 ft | 488 kts | 59° |
| 2026-05-04 04:15 | 40.47690 | -91.62984 | 36859 ft | 487 kts | 60° |
| 2026-05-04 04:16 | 40.50443 | -91.54867 | 36856 ft | 486 kts | 60° |
| 2026-05-04 04:16 | 40.53192 | -91.46738 | 36855 ft | 486 kts | 60° |
| 2026-05-04 04:17 | 40.55946 | -91.38636 | 36856 ft | 485 kts | 59° |
| 2026-05-04 04:17 | 40.58717 | -91.30549 | 36852 ft | 484 kts | 59° |
| 2026-05-04 04:18 | 40.61477 | -91.22465 | 36856 ft | 484 kts | 60° |
| 2026-05-04 04:18 | 40.64223 | -91.14394 | 36852 ft | 483 kts | 60° |
| 2026-05-04 04:19 | 40.66967 | -91.06311 | 36847 ft | 482 kts | 60° |
| 2026-05-04 04:19 | 40.69697 | -90.98242 | 36847 ft | 482 kts | 60° |
| 2026-05-04 04:20 | 40.72419 | -90.90177 | 36847 ft | 481 kts | 60° |
| 2026-05-04 04:20 | 40.75126 | -90.82131 | 36182 ft | 478 kts | 60° |
| 2026-05-04 04:21 | 40.76477 | -90.78111 | 35414 ft | 480 kts | 60° |
| 2026-05-04 04:21 | 40.77829 | -90.74077 | 34673 ft | 481 kts | 59° |
| 2026-05-04 04:21 | 40.79164 | -90.70088 | 33953 ft | 482 kts | 59° |
| 2026-05-04 04:21 | 40.80517 | -90.66040 | 33231 ft | 480 kts | 59° |
| 2026-05-04 04:22 | 40.81856 | -90.62028 | 32673 ft | 475 kts | 59° |
| 2026-05-04 04:22 | 40.83186 | -90.58058 | 32083 ft | 471 kts | 59° |
| 2026-05-04 04:22 | 40.84504 | -90.54118 | 31511 ft | 467 kts | 60° |
| 2026-05-04 04:22 | 40.85806 | -90.50222 | 31021 ft | 461 kts | 60° |
| 2026-05-04 04:23 | 40.87095 | -90.46362 | 30512 ft | 457 kts | 60° |
| 2026-05-04 04:23 | 40.88372 | -90.42531 | 29964 ft | 454 kts | 60° |
| 2026-05-04 04:23 | 40.89639 | -90.38724 | 29352 ft | 451 kts | 60° |
| 2026-05-04 04:23 | 40.90896 | -90.34944 | 28816 ft | 446 kts | 60° |
| 2026-05-04 04:24 | 40.92136 | -90.31207 | 28306 ft | 441 kts | 60° |
| 2026-05-04 04:24 | 40.93364 | -90.27506 | 27806 ft | 437 kts | 60° |
| 2026-05-04 04:24 | 40.94578 | -90.23838 | 27301 ft | 433 kts | 60° |
| 2026-05-04 04:24 | 40.95778 | -90.20207 | 26801 ft | 429 kts | 60° |
| 2026-05-04 04:25 | 40.96969 | -90.16603 | 26314 ft | 426 kts | 60° |
| 2026-05-04 04:25 | 40.98148 | -90.13027 | 25824 ft | 423 kts | 60° |
| 2026-05-04 04:25 | 40.99319 | -90.09471 | 25342 ft | 420 kts | 60° |
| 2026-05-04 04:25 | 41.00480 | -90.05940 | 24866 ft | 417 kts | 60° |
| 2026-05-04 04:26 | 41.01634 | -90.02430 | 24400 ft | 414 kts | 60° |
| 2026-05-04 04:26 | 41.02780 | -89.98941 | 23952 ft | 411 kts | 61° |
| 2026-05-04 04:26 | 41.03918 | -89.95501 | 23830 ft | 407 kts | 60° |
| 2026-05-04 04:26 | 41.05057 | -89.92061 | 23758 ft | 408 kts | 60° |
| 2026-05-04 04:27 | 41.06196 | -89.88612 | 23713 ft | 408 kts | 61° |
| 2026-05-04 04:27 | 41.07335 | -89.85162 | 23661 ft | 408 kts | 61° |
| 2026-05-04 04:27 | 41.08469 | -89.81723 | 23612 ft | 408 kts | 61° |
| 2026-05-04 04:27 | 41.09604 | -89.78277 | 23555 ft | 407 kts | 61° |
| 2026-05-04 04:28 | 41.10719 | -89.74885 | 23516 ft | 407 kts | 61° |
| 2026-05-04 04:28 | 41.11850 | -89.71441 | 23471 ft | 406 kts | 61° |
| 2026-05-04 04:28 | 41.12976 | -89.68009 | 23416 ft | 406 kts | 61° |
| 2026-05-04 04:28 | 41.14099 | -89.64580 | 23363 ft | 405 kts | 61° |
| 2026-05-04 04:29 | 41.15223 | -89.61148 | 23310 ft | 405 kts | 61° |
| 2026-05-04 04:29 | 41.16432 | -89.57792 | 23252 ft | 400 kts | 55° |
| 2026-05-04 04:29 | 41.17780 | -89.54561 | 23202 ft | 401 kts | 56° |
| 2026-05-04 04:29 | 41.19113 | -89.51305 | 23156 ft | 400 kts | 56° |
| 2026-05-04 04:30 | 41.20431 | -89.48049 | 23114 ft | 400 kts | 56° |
| 2026-05-04 04:30 | 41.21742 | -89.44791 | 23062 ft | 400 kts | 56° |
| 2026-05-04 04:30 | 41.23053 | -89.41527 | 23016 ft | 400 kts | 56° |
| 2026-05-04 04:30 | 41.24358 | -89.38268 | 22968 ft | 399 kts | 56° |
| 2026-05-04 04:31 | 41.25663 | -89.35010 | 22918 ft | 399 kts | 56° |
| 2026-05-04 04:31 | 41.26962 | -89.31758 | 22871 ft | 399 kts | 56° |
| 2026-05-04 04:31 | 41.28263 | -89.28502 | 22809 ft | 398 kts | 56° |
| 2026-05-04 04:31 | 41.29569 | -89.25249 | 22122 ft | 401 kts | 57° |
| 2026-05-04 04:32 | 41.30882 | -89.21978 | 21523 ft | 401 kts | 57° |
| 2026-05-04 04:32 | 41.32193 | -89.18706 | 20943 ft | 401 kts | 57° |
| 2026-05-04 04:32 | 41.33504 | -89.15430 | 20322 ft | 402 kts | 57° |
| 2026-05-04 04:32 | 41.34804 | -89.12177 | 19717 ft | 393 kts | 57° |
| 2026-05-04 04:33 | 41.36074 | -89.08997 | 19117 ft | 384 kts | 57° |
| 2026-05-04 04:33 | 41.37299 | -89.05928 | 18534 ft | 380 kts | 57° |
| 2026-05-04 04:33 | 41.38546 | -89.02800 | 17903 ft | 384 kts | 57° |
| 2026-05-04 04:33 | 41.39802 | -88.99643 | 17245 ft | 387 kts | 58° |
| 2026-05-04 04:34 | 41.41062 | -88.96474 | 16631 ft | 388 kts | 58° |
| 2026-05-04 04:34 | 41.42324 | -88.93298 | 16034 ft | 388 kts | 58° |
| 2026-05-04 04:34 | 41.43587 | -88.90115 | 15436 ft | 388 kts | 58° |
| 2026-05-04 04:34 | 41.44848 | -88.86933 | 14916 ft | 387 kts | 58° |
| 2026-05-04 04:35 | 41.46090 | -88.83797 | 14420 ft | 376 kts | 58° |
| 2026-05-04 04:35 | 41.47291 | -88.80761 | 13882 ft | 364 kts | 58° |
| 2026-05-04 04:35 | 41.48067 | -88.78798 | 13505 ft | 357 kts | 58° |
| 2026-05-04 04:35 | 41.49211 | -88.75901 | 12901 ft | 350 kts | 58° |
| 2026-05-04 04:36 | 41.50334 | -88.73055 | 12334 ft | 344 kts | 59° |
| 2026-05-04 04:36 | 41.51436 | -88.70263 | 12003 ft | 336 kts | 59° |
| 2026-05-04 04:36 | 41.52524 | -88.67505 | 12006 ft | 336 kts | 59° |
| 2026-05-04 04:36 | 41.53610 | -88.64746 | 12009 ft | 336 kts | 58° |
| 2026-05-04 04:37 | 41.56996 | -88.56567 | 11994 ft | 331 kts | 46° |
| 2026-05-04 04:37 | 41.58547 | -88.54299 | 12003 ft | 330 kts | 44° |
| 2026-05-04 04:38 | 41.60101 | -88.52036 | 11787 ft | 329 kts | 44° |
| 2026-05-04 04:38 | 41.61643 | -88.49790 | 11531 ft | 327 kts | 44° |
| 2026-05-04 04:38 | 41.63178 | -88.47552 | 11287 ft | 324 kts | 44° |
| 2026-05-04 04:38 | 41.64661 | -88.45389 | 11130 ft | 315 kts | 44° |
| 2026-05-04 04:39 | 41.66116 | -88.43264 | 10982 ft | 305 kts | 44° |
| 2026-05-04 04:39 | 41.67525 | -88.41206 | 10848 ft | 295 kts | 44° |
| 2026-05-04 04:39 | 41.68895 | -88.39203 | 10635 ft | 289 kts | 44° |
| 2026-05-04 04:39 | 41.70253 | -88.37216 | 10293 ft | 288 kts | 44° |
| 2026-05-04 04:40 | 41.71639 | -88.35299 | 9975 ft | 284 kts | 37° |
| 2026-05-04 04:40 | 41.73124 | -88.33562 | 9638 ft | 283 kts | 37° |
| 2026-05-04 04:40 | 41.74599 | -88.31818 | 9293 ft | 282 kts | 38° |
| 2026-05-04 04:40 | 41.76063 | -88.30073 | 8920 ft | 282 kts | 38° |
| 2026-05-04 04:41 | 41.77525 | -88.28319 | 8529 ft | 281 kts | 38° |
| 2026-05-04 04:41 | 41.78981 | -88.26566 | 8161 ft | 281 kts | 38° |
| 2026-05-04 04:41 | 41.80432 | -88.24814 | 7825 ft | 281 kts | 38° |
| 2026-05-04 04:41 | 41.81885 | -88.23059 | 7437 ft | 281 kts | 38° |
| 2026-05-04 04:42 | 41.83335 | -88.21306 | 7101 ft | 281 kts | 38° |
| 2026-05-04 04:42 | 41.84788 | -88.19548 | 6753 ft | 281 kts | 38° |
| 2026-05-04 04:42 | 41.86237 | -88.17794 | 6413 ft | 281 kts | 38° |
| 2026-05-04 04:42 | 41.87596 | -88.15953 | 6123 ft | 282 kts | 53° |
| 2026-05-04 04:43 | 41.88342 | -88.13519 | 6009 ft | 288 kts | 79° |
| 2026-05-04 04:43 | 41.88451 | -88.10787 | 5998 ft | 291 kts | 88° |
| 2026-05-04 04:43 | 41.88467 | -88.08100 | 5993 ft | 292 kts | 89° |
| 2026-05-04 04:43 | 41.88470 | -88.05429 | 5991 ft | 279 kts | 89° |
| 2026-05-04 04:44 | 41.88464 | -88.02890 | 5976 ft | 266 kts | 89° |
| 2026-05-04 04:44 | 41.88454 | -88.00451 | 5887 ft | 256 kts | 89° |
| 2026-05-04 04:44 | 41.88447 | -87.98109 | 5790 ft | 247 kts | 89° |
| 2026-05-04 04:44 | 41.88450 | -87.95827 | 5525 ft | 245 kts | 89° |
| 2026-05-04 04:45 | 41.88450 | -87.93539 | 5255 ft | 243 kts | 89° |
| 2026-05-04 04:45 | 41.88449 | -87.91268 | 4954 ft | 244 kts | 89° |
| 2026-05-04 04:45 | 41.88446 | -87.89002 | 4683 ft | 242 kts | 89° |
| 2026-05-04 04:47 | 41.88430 | -87.75507 | 3091 ft | 238 kts | 90° |
| 2026-05-04 04:47 | 41.88620 | -87.73352 | 3040 ft | 225 kts | 66° |
| 2026-05-04 04:47 | 41.89496 | -87.71782 | 3018 ft | 203 kts | 29° |
| 2026-05-04 04:47 | 41.90746 | -87.71196 | 3005 ft | 190 kts | 360° |
| 2026-05-04 04:48 | 41.92045 | -87.71224 | 3041 ft | 185 kts | 347° |
| 2026-05-04 04:49 | 41.96521 | -87.73315 | 2709 ft | 151 kts | 283° |
| 2026-05-04 04:49 | 41.96594 | -87.74603 | 2589 ft | 133 kts | 268° |
| 2026-05-04 04:49 | 41.96592 | -87.75841 | 2421 ft | 132 kts | 268° |
| 2026-05-04 04:49 | 41.96591 | -87.77058 | 2250 ft | 129 kts | 269° |